sensor_id;sensor_type;location;lat;lon;timestamp;P1;durP1;ratioP1;P2;durP2;ratioP2
7215;SDS011;3649;48.798;9.798;2023-03-03T00:00:58;37.90;;;25.30;;
7215;SDS011;3649;48.798;9.798;2023-03-03T00:03:24;37.20;;;24.10;;
7215;SDS011;3649;48.798;9.798;2023-03-03T00:05:53;33.40;;;24.47;;
7215;SDS011;3649;48.798;9.798;2023-03-03T00:08:20;34.93;;;24.07;;
7215;SDS011;3649;48.798;9.798;2023-03-03T00:10:48;38.80;;;25.20;;
7215;SDS011;3649;48.798;9.798;2023-03-03T00:13:22;37.23;;;24.57;;
7215;SDS011;3649;48.798;9.798;2023-03-03T00:15:51;38.23;;;25.43;;
7215;SDS011;3649;48.798;9.798;2023-03-03T00:21:01;35.63;;;22.93;;
7215;SDS011;3649;48.798;9.798;2023-03-03T00:23:45;35.17;;;23.70;;
7215;SDS011;3649;48.798;9.798;2023-03-03T00:26:17;34.43;;;23.17;;
7215;SDS011;3649;48.798;9.798;2023-03-03T00:28:48;32.70;;;23.03;;
7215;SDS011;3649;48.798;9.798;2023-03-03T00:31:18;33.87;;;22.57;;
7215;SDS011;3649;48.798;9.798;2023-03-03T00:33:53;33.27;;;22.73;;
7215;SDS011;3649;48.798;9.798;2023-03-03T00:36:37;33.27;;;24.03;;
7215;SDS011;3649;48.798;9.798;2023-03-03T00:39:21;35.73;;;23.83;;
7215;SDS011;3649;48.798;9.798;2023-03-03T00:41:49;40.40;;;23.37;;
7215;SDS011;3649;48.798;9.798;2023-03-03T00:47:51;36.63;;;23.20;;
7215;SDS011;3649;48.798;9.798;2023-03-03T00:52:37;32.63;;;23.30;;
7215;SDS011;3649;48.798;9.798;2023-03-03T00:55:17;37.17;;;23.67;;
7215;SDS011;3649;48.798;9.798;2023-03-03T00:57:44;40.67;;;24.50;;
7215;SDS011;3649;48.798;9.798;2023-03-03T01:00:11;37.20;;;23.87;;
7215;SDS011;3649;48.798;9.798;2023-03-03T01:02:38;35.40;;;25.03;;
7215;SDS011;3649;48.798;9.798;2023-03-03T01:05:05;36.90;;;25.13;;
7215;SDS011;3649;48.798;9.798;2023-03-03T01:07:33;38.87;;;23.70;;
7215;SDS011;3649;48.798;9.798;2023-03-03T01:10:00;35.53;;;24.53;;
7215;SDS011;3649;48.798;9.798;2023-03-03T01:12:27;33.00;;;23.50;;
7215;SDS011;3649;48.798;9.798;2023-03-03T01:14:53;37.73;;;24.80;;
7215;SDS011;3649;48.798;9.798;2023-03-03T01:17:21;40.00;;;24.00;;
7215;SDS011;3649;48.798;9.798;2023-03-03T01:19:48;35.73;;;24.10;;
7215;SDS011;3649;48.798;9.798;2023-03-03T01:22:15;34.97;;;23.83;;
7215;SDS011;3649;48.798;9.798;2023-03-03T01:24:41;35.57;;;24.43;;
7215;SDS011;3649;48.798;9.798;2023-03-03T01:27:08;39.63;;;26.13;;
7215;SDS011;3649;48.798;9.798;2023-03-03T01:29:35;36.83;;;23.57;;
7215;SDS011;3649;48.798;9.798;2023-03-03T01:32:02;35.30;;;23.03;;
7215;SDS011;3649;48.798;9.798;2023-03-03T01:34:29;38.43;;;25.57;;
7215;SDS011;3649;48.798;9.798;2023-03-03T01:36:56;35.27;;;23.13;;
7215;SDS011;3649;48.798;9.798;2023-03-03T01:39:22;34.67;;;24.73;;
7215;SDS011;3649;48.798;9.798;2023-03-03T01:41:49;38.50;;;24.93;;
7215;SDS011;3649;48.798;9.798;2023-03-03T01:44:16;40.77;;;26.23;;
7215;SDS011;3649;48.798;9.798;2023-03-03T01:46:53;40.07;;;24.60;;
7215;SDS011;3649;48.798;9.798;2023-03-03T01:49:52;33.00;;;23.53;;
7215;SDS011;3649;48.798;9.798;2023-03-03T01:52:38;36.13;;;22.70;;
7215;SDS011;3649;48.798;9.798;2023-03-03T01:55:16;36.07;;;25.03;;
7215;SDS011;3649;48.798;9.798;2023-03-03T01:57:51;35.67;;;23.80;;
7215;SDS011;3649;48.798;9.798;2023-03-03T02:00:24;37.00;;;23.73;;
7215;SDS011;3649;48.798;9.798;2023-03-03T02:02:51;41.13;;;24.47;;
7215;SDS011;3649;48.798;9.798;2023-03-03T02:05:20;36.83;;;24.87;;
7215;SDS011;3649;48.798;9.798;2023-03-03T02:07:47;33.60;;;22.10;;
7215;SDS011;3649;48.798;9.798;2023-03-03T02:10:15;34.87;;;22.40;;
7215;SDS011;3649;48.798;9.798;2023-03-03T02:12:54;37.70;;;24.33;;
7215;SDS011;3649;48.798;9.798;2023-03-03T02:15:33;38.37;;;24.83;;
7215;SDS011;3649;48.798;9.798;2023-03-03T02:18:06;37.23;;;23.30;;
7215;SDS011;3649;48.798;9.798;2023-03-03T02:23:24;35.23;;;23.67;;
7215;SDS011;3649;48.798;9.798;2023-03-03T02:28:28;34.70;;;23.17;;
7215;SDS011;3649;48.798;9.798;2023-03-03T02:30:58;39.00;;;24.33;;
7215;SDS011;3649;48.798;9.798;2023-03-03T02:33:26;43.00;;;25.43;;
7215;SDS011;3649;48.798;9.798;2023-03-03T02:35:53;37.27;;;23.40;;
7215;SDS011;3649;48.798;9.798;2023-03-03T02:38:23;38.63;;;23.60;;
7215;SDS011;3649;48.798;9.798;2023-03-03T02:43:47;33.90;;;22.70;;
7215;SDS011;3649;48.798;9.798;2023-03-03T02:46:23;36.90;;;24.40;;
7215;SDS011;3649;48.798;9.798;2023-03-03T02:48:50;40.10;;;24.50;;
7215;SDS011;3649;48.798;9.798;2023-03-03T02:51:17;38.53;;;24.77;;
7215;SDS011;3649;48.798;9.798;2023-03-03T02:53:44;40.63;;;24.90;;
7215;SDS011;3649;48.798;9.798;2023-03-03T02:56:11;38.47;;;24.53;;
7215;SDS011;3649;48.798;9.798;2023-03-03T02:58:39;36.53;;;24.40;;
7215;SDS011;3649;48.798;9.798;2023-03-03T03:01:05;37.87;;;24.67;;
7215;SDS011;3649;48.798;9.798;2023-03-03T03:03:33;38.13;;;24.63;;
7215;SDS011;3649;48.798;9.798;2023-03-03T03:05:59;38.83;;;23.77;;
7215;SDS011;3649;48.798;9.798;2023-03-03T03:08:26;36.23;;;24.17;;
7215;SDS011;3649;48.798;9.798;2023-03-03T03:10:53;40.60;;;24.90;;
7215;SDS011;3649;48.798;9.798;2023-03-03T03:13:22;41.57;;;24.83;;
7215;SDS011;3649;48.798;9.798;2023-03-03T03:15:50;37.77;;;24.10;;
7215;SDS011;3649;48.798;9.798;2023-03-03T03:18:17;37.23;;;23.73;;
7215;SDS011;3649;48.798;9.798;2023-03-03T03:20:44;38.70;;;24.70;;
7215;SDS011;3649;48.798;9.798;2023-03-03T03:23:13;43.50;;;24.73;;
7215;SDS011;3649;48.798;9.798;2023-03-03T03:25:40;39.07;;;25.57;;
7215;SDS011;3649;48.798;9.798;2023-03-03T03:28:14;34.10;;;24.23;;
7215;SDS011;3649;48.798;9.798;2023-03-03T03:30:42;42.33;;;25.37;;
7215;SDS011;3649;48.798;9.798;2023-03-03T03:33:10;40.77;;;25.30;;
7215;SDS011;3649;48.798;9.798;2023-03-03T03:35:38;37.70;;;24.00;;
7215;SDS011;3649;48.798;9.798;2023-03-03T03:38:10;36.00;;;23.60;;
7215;SDS011;3649;48.798;9.798;2023-03-03T03:40:38;38.40;;;24.37;;
7215;SDS011;3649;48.798;9.798;2023-03-03T03:43:05;45.17;;;25.07;;
7215;SDS011;3649;48.798;9.798;2023-03-03T03:45:32;35.13;;;23.77;;
7215;SDS011;3649;48.798;9.798;2023-03-03T03:47:59;37.57;;;25.10;;
7215;SDS011;3649;48.798;9.798;2023-03-03T03:50:26;41.37;;;25.03;;
7215;SDS011;3649;48.798;9.798;2023-03-03T03:52:53;34.43;;;23.67;;
7215;SDS011;3649;48.798;9.798;2023-03-03T03:55:19;37.47;;;24.63;;
7215;SDS011;3649;48.798;9.798;2023-03-03T03:57:47;38.97;;;23.17;;
7215;SDS011;3649;48.798;9.798;2023-03-03T04:00:14;38.33;;;25.27;;
7215;SDS011;3649;48.798;9.798;2023-03-03T04:02:42;35.33;;;23.33;;
7215;SDS011;3649;48.798;9.798;2023-03-03T04:05:08;36.07;;;24.57;;
7215;SDS011;3649;48.798;9.798;2023-03-03T04:07:35;36.07;;;26.27;;
7215;SDS011;3649;48.798;9.798;2023-03-03T04:10:03;41.83;;;23.70;;
7215;SDS011;3649;48.798;9.798;2023-03-03T04:12:30;37.73;;;24.67;;
7215;SDS011;3649;48.798;9.798;2023-03-03T04:15:04;37.10;;;24.90;;
7215;SDS011;3649;48.798;9.798;2023-03-03T04:17:36;37.13;;;24.60;;
7215;SDS011;3649;48.798;9.798;2023-03-03T04:20:03;33.50;;;23.03;;
7215;SDS011;3649;48.798;9.798;2023-03-03T04:22:31;33.47;;;23.37;;
7215;SDS011;3649;48.798;9.798;2023-03-03T04:25:00;38.73;;;24.90;;
7215;SDS011;3649;48.798;9.798;2023-03-03T04:27:32;37.13;;;24.83;;
7215;SDS011;3649;48.798;9.798;2023-03-03T04:30:02;37.87;;;25.00;;
7215;SDS011;3649;48.798;9.798;2023-03-03T04:32:31;37.67;;;24.67;;
7215;SDS011;3649;48.798;9.798;2023-03-03T04:34:59;41.20;;;25.43;;
7215;SDS011;3649;48.798;9.798;2023-03-03T04:37:33;36.40;;;24.80;;
7215;SDS011;3649;48.798;9.798;2023-03-03T04:40:02;34.73;;;24.73;;
7215;SDS011;3649;48.798;9.798;2023-03-03T04:42:35;35.57;;;24.03;;
7215;SDS011;3649;48.798;9.798;2023-03-03T04:45:02;37.30;;;24.33;;
7215;SDS011;3649;48.798;9.798;2023-03-03T04:47:30;37.03;;;24.47;;
7215;SDS011;3649;48.798;9.798;2023-03-03T04:49:58;38.23;;;24.57;;
7215;SDS011;3649;48.798;9.798;2023-03-03T04:52:26;40.77;;;25.53;;
7215;SDS011;3649;48.798;9.798;2023-03-03T04:54:52;33.20;;;23.77;;
7215;SDS011;3649;48.798;9.798;2023-03-03T04:57:19;40.47;;;26.03;;
7215;SDS011;3649;48.798;9.798;2023-03-03T04:59:46;35.13;;;24.77;;
7215;SDS011;3649;48.798;9.798;2023-03-03T05:02:13;44.30;;;25.10;;
7215;SDS011;3649;48.798;9.798;2023-03-03T05:04:40;33.33;;;23.47;;
7215;SDS011;3649;48.798;9.798;2023-03-03T05:07:07;39.47;;;25.17;;
7215;SDS011;3649;48.798;9.798;2023-03-03T05:09:34;38.73;;;24.30;;
7215;SDS011;3649;48.798;9.798;2023-03-03T05:12:01;38.93;;;25.10;;
7215;SDS011;3649;48.798;9.798;2023-03-03T05:14:28;38.10;;;23.83;;
7215;SDS011;3649;48.798;9.798;2023-03-03T05:16:56;38.60;;;24.70;;
7215;SDS011;3649;48.798;9.798;2023-03-03T05:19:23;39.40;;;23.80;;
7215;SDS011;3649;48.798;9.798;2023-03-03T05:21:51;37.93;;;24.53;;
7215;SDS011;3649;48.798;9.798;2023-03-03T05:24:18;43.17;;;24.67;;
7215;SDS011;3649;48.798;9.798;2023-03-03T05:26:45;39.90;;;25.00;;
7215;SDS011;3649;48.798;9.798;2023-03-03T05:29:12;42.80;;;25.43;;
7215;SDS011;3649;48.798;9.798;2023-03-03T05:31:38;37.53;;;24.43;;
7215;SDS011;3649;48.798;9.798;2023-03-03T05:34:05;39.00;;;25.00;;
7215;SDS011;3649;48.798;9.798;2023-03-03T05:36:32;45.27;;;26.07;;
7215;SDS011;3649;48.798;9.798;2023-03-03T05:38:59;43.37;;;25.33;;
7215;SDS011;3649;48.798;9.798;2023-03-03T05:41:25;38.57;;;25.13;;
7215;SDS011;3649;48.798;9.798;2023-03-03T05:43:52;36.40;;;23.23;;
7215;SDS011;3649;48.798;9.798;2023-03-03T05:46:19;33.93;;;23.90;;
7215;SDS011;3649;48.798;9.798;2023-03-03T05:48:46;37.80;;;24.60;;
7215;SDS011;3649;48.798;9.798;2023-03-03T05:51:13;42.57;;;25.17;;
7215;SDS011;3649;48.798;9.798;2023-03-03T05:53:40;42.83;;;26.43;;
7215;SDS011;3649;48.798;9.798;2023-03-03T05:56:07;38.10;;;24.60;;
7215;SDS011;3649;48.798;9.798;2023-03-03T05:58:34;37.83;;;24.07;;
7215;SDS011;3649;48.798;9.798;2023-03-03T06:01:01;38.40;;;25.03;;
7215;SDS011;3649;48.798;9.798;2023-03-03T06:03:28;41.77;;;25.27;;
7215;SDS011;3649;48.798;9.798;2023-03-03T06:05:55;35.60;;;23.53;;
7215;SDS011;3649;48.798;9.798;2023-03-03T06:08:21;37.63;;;23.73;;
7215;SDS011;3649;48.798;9.798;2023-03-03T06:10:48;34.43;;;24.03;;
7215;SDS011;3649;48.798;9.798;2023-03-03T06:13:15;37.63;;;23.50;;
7215;SDS011;3649;48.798;9.798;2023-03-03T06:15:42;38.80;;;23.43;;
7215;SDS011;3649;48.798;9.798;2023-03-03T06:18:09;38.23;;;25.23;;
7215;SDS011;3649;48.798;9.798;2023-03-03T06:20:36;38.23;;;23.53;;
7215;SDS011;3649;48.798;9.798;2023-03-03T06:23:04;35.97;;;23.43;;
7215;SDS011;3649;48.798;9.798;2023-03-03T06:25:31;39.53;;;26.43;;
7215;SDS011;3649;48.798;9.798;2023-03-03T06:28:01;35.90;;;24.77;;
7215;SDS011;3649;48.798;9.798;2023-03-03T06:30:28;38.00;;;24.97;;
7215;SDS011;3649;48.798;9.798;2023-03-03T06:32:55;40.47;;;23.93;;
7215;SDS011;3649;48.798;9.798;2023-03-03T06:35:22;38.73;;;23.83;;
7215;SDS011;3649;48.798;9.798;2023-03-03T06:37:49;36.30;;;24.57;;
7215;SDS011;3649;48.798;9.798;2023-03-03T06:40:16;43.67;;;25.23;;
7215;SDS011;3649;48.798;9.798;2023-03-03T06:42:43;34.87;;;24.27;;
7215;SDS011;3649;48.798;9.798;2023-03-03T06:45:10;35.57;;;24.20;;
7215;SDS011;3649;48.798;9.798;2023-03-03T06:47:37;39.27;;;25.47;;
7215;SDS011;3649;48.798;9.798;2023-03-03T06:50:04;42.43;;;25.43;;
7215;SDS011;3649;48.798;9.798;2023-03-03T06:52:31;41.00;;;26.83;;
7215;SDS011;3649;48.798;9.798;2023-03-03T06:54:59;43.40;;;26.57;;
7215;SDS011;3649;48.798;9.798;2023-03-03T06:57:32;40.40;;;27.17;;
7215;SDS011;3649;48.798;9.798;2023-03-03T07:00:09;39.63;;;25.30;;
7215;SDS011;3649;48.798;9.798;2023-03-03T07:02:42;36.90;;;23.83;;
7215;SDS011;3649;48.798;9.798;2023-03-03T07:05:11;37.80;;;24.83;;
7215;SDS011;3649;48.798;9.798;2023-03-03T07:07:41;36.90;;;24.37;;
7215;SDS011;3649;48.798;9.798;2023-03-03T07:13:17;39.93;;;24.73;;
7215;SDS011;3649;48.798;9.798;2023-03-03T07:15:47;37.87;;;25.27;;
7215;SDS011;3649;48.798;9.798;2023-03-03T07:18:24;41.57;;;25.80;;
7215;SDS011;3649;48.798;9.798;2023-03-03T07:21:13;42.23;;;25.97;;
7215;SDS011;3649;48.798;9.798;2023-03-03T07:23:46;41.67;;;27.23;;
7215;SDS011;3649;48.798;9.798;2023-03-03T07:26:23;35.13;;;25.20;;
7215;SDS011;3649;48.798;9.798;2023-03-03T07:28:55;41.70;;;25.57;;
7215;SDS011;3649;48.798;9.798;2023-03-03T07:31:39;36.93;;;24.47;;
7215;SDS011;3649;48.798;9.798;2023-03-03T07:34:17;45.77;;;27.70;;
7215;SDS011;3649;48.798;9.798;2023-03-03T07:37:24;40.23;;;26.23;;
7215;SDS011;3649;48.798;9.798;2023-03-03T07:39:59;37.93;;;26.40;;
7215;SDS011;3649;48.798;9.798;2023-03-03T07:42:39;46.90;;;27.60;;
7215;SDS011;3649;48.798;9.798;2023-03-03T07:45:41;47.23;;;25.97;;
7215;SDS011;3649;48.798;9.798;2023-03-03T07:48:10;35.83;;;23.90;;
7215;SDS011;3649;48.798;9.798;2023-03-03T07:51:01;42.53;;;25.80;;
7215;SDS011;3649;48.798;9.798;2023-03-03T07:53:33;41.13;;;27.87;;
7215;SDS011;3649;48.798;9.798;2023-03-03T07:56:01;40.33;;;26.03;;
7215;SDS011;3649;48.798;9.798;2023-03-03T07:58:38;52.03;;;29.27;;
7215;SDS011;3649;48.798;9.798;2023-03-03T08:03:52;50.17;;;29.57;;
7215;SDS011;3649;48.798;9.798;2023-03-03T08:11:48;47.97;;;27.60;;
7215;SDS011;3649;48.798;9.798;2023-03-03T08:14:24;45.33;;;29.07;;
7215;SDS011;3649;48.798;9.798;2023-03-03T08:16:54;48.63;;;29.67;;
7215;SDS011;3649;48.798;9.798;2023-03-03T08:19:25;50.93;;;32.17;;
7215;SDS011;3649;48.798;9.798;2023-03-03T08:21:57;48.20;;;28.90;;
7215;SDS011;3649;48.798;9.798;2023-03-03T08:24:28;48.87;;;30.23;;
7215;SDS011;3649;48.798;9.798;2023-03-03T08:26:55;47.87;;;30.90;;
7215;SDS011;3649;48.798;9.798;2023-03-03T08:29:22;50.17;;;29.97;;
7215;SDS011;3649;48.798;9.798;2023-03-03T08:31:49;42.67;;;29.73;;
7215;SDS011;3649;48.798;9.798;2023-03-03T08:34:15;52.80;;;29.63;;
7215;SDS011;3649;48.798;9.798;2023-03-03T08:36:42;52.60;;;30.53;;
7215;SDS011;3649;48.798;9.798;2023-03-03T08:39:09;46.13;;;30.27;;
7215;SDS011;3649;48.798;9.798;2023-03-03T08:41:36;54.20;;;32.67;;
7215;SDS011;3649;48.798;9.798;2023-03-03T08:44:04;45.30;;;30.13;;
7215;SDS011;3649;48.798;9.798;2023-03-03T08:46:31;58.77;;;31.83;;
7215;SDS011;3649;48.798;9.798;2023-03-03T08:48:58;49.43;;;30.47;;
7215;SDS011;3649;48.798;9.798;2023-03-03T08:51:24;56.00;;;32.57;;
7215;SDS011;3649;48.798;9.798;2023-03-03T08:53:51;47.60;;;30.50;;
7215;SDS011;3649;48.798;9.798;2023-03-03T08:56:18;40.83;;;28.63;;
7215;SDS011;3649;48.798;9.798;2023-03-03T08:58:45;52.77;;;32.00;;
7215;SDS011;3649;48.798;9.798;2023-03-03T09:01:27;53.13;;;29.83;;
7215;SDS011;3649;48.798;9.798;2023-03-03T09:03:54;51.00;;;31.17;;
7215;SDS011;3649;48.798;9.798;2023-03-03T09:06:21;55.30;;;30.10;;
7215;SDS011;3649;48.798;9.798;2023-03-03T09:08:48;47.97;;;31.10;;
7215;SDS011;3649;48.798;9.798;2023-03-03T09:11:18;49.37;;;30.80;;
7215;SDS011;3649;48.798;9.798;2023-03-03T09:13:53;49.17;;;31.87;;
7215;SDS011;3649;48.798;9.798;2023-03-03T09:16:25;48.17;;;29.73;;
7215;SDS011;3649;48.798;9.798;2023-03-03T09:18:55;44.20;;;29.17;;
7215;SDS011;3649;48.798;9.798;2023-03-03T09:21:24;47.60;;;31.37;;
7215;SDS011;3649;48.798;9.798;2023-03-03T09:23:58;46.60;;;30.87;;
7215;SDS011;3649;48.798;9.798;2023-03-03T09:26:29;44.83;;;30.50;;
7215;SDS011;3649;48.798;9.798;2023-03-03T09:31:44;46.10;;;30.90;;
7215;SDS011;3649;48.798;9.798;2023-03-03T09:34:21;49.47;;;31.03;;
7215;SDS011;3649;48.798;9.798;2023-03-03T09:36:51;47.63;;;30.93;;
7215;SDS011;3649;48.798;9.798;2023-03-03T09:50:16;45.20;;;30.40;;
7215;SDS011;3649;48.798;9.798;2023-03-03T09:56:03;43.33;;;30.00;;
7215;SDS011;3649;48.798;9.798;2023-03-03T10:22:53;47.33;;;28.97;;
7215;SDS011;3649;48.798;9.798;2023-03-03T10:25:32;40.67;;;28.57;;
7215;SDS011;3649;48.798;9.798;2023-03-03T10:34:36;36.97;;;25.13;;
7215;SDS011;3649;48.798;9.798;2023-03-03T10:36:44;33.93;;;22.73;;
7215;SDS011;3649;48.798;9.798;2023-03-03T10:41:46;40.00;;;26.13;;
7215;SDS011;3649;48.798;9.798;2023-03-03T10:44:41;31.33;;;20.87;;
7215;SDS011;3649;48.798;9.798;2023-03-03T10:47:44;29.80;;;18.80;;
7215;SDS011;3649;48.798;9.798;2023-03-03T10:50:32;35.27;;;23.27;;
7215;SDS011;3649;48.798;9.798;2023-03-03T10:53:18;27.80;;;20.23;;
7215;SDS011;3649;48.798;9.798;2023-03-03T11:02:06;32.47;;;20.93;;
7215;SDS011;3649;48.798;9.798;2023-03-03T11:05:05;29.07;;;22.23;;
7215;SDS011;3649;48.798;9.798;2023-03-03T11:07:47;30.67;;;22.23;;
7215;SDS011;3649;48.798;9.798;2023-03-03T11:13:34;29.13;;;21.43;;
7215;SDS011;3649;48.798;9.798;2023-03-03T11:27:46;35.60;;;20.50;;
7215;SDS011;3649;48.798;9.798;2023-03-03T11:30:40;26.23;;;19.17;;
7215;SDS011;3649;48.798;9.798;2023-03-03T11:41:41;24.83;;;17.80;;
7215;SDS011;3649;48.798;9.798;2023-03-03T11:47:41;24.27;;;17.70;;
7215;SDS011;3649;48.798;9.798;2023-03-03T11:50:35;28.17;;;17.60;;
7215;SDS011;3649;48.798;9.798;2023-03-03T11:55:41;24.70;;;18.17;;
7215;SDS011;3649;48.798;9.798;2023-03-03T11:58:30;26.10;;;16.90;;
7215;SDS011;3649;48.798;9.798;2023-03-03T12:03:52;24.60;;;17.87;;
7215;SDS011;3649;48.798;9.798;2023-03-03T12:09:46;23.67;;;16.83;;
7215;SDS011;3649;48.798;9.798;2023-03-03T12:12:35;26.97;;;17.73;;
7215;SDS011;3649;48.798;9.798;2023-03-03T12:15:29;27.43;;;18.30;;
7215;SDS011;3649;48.798;9.798;2023-03-03T12:24:07;24.73;;;16.23;;
7215;SDS011;3649;48.798;9.798;2023-03-03T12:29:09;24.87;;;17.83;;
7215;SDS011;3649;48.798;9.798;2023-03-03T12:34:53;24.73;;;18.13;;
7215;SDS011;3649;48.798;9.798;2023-03-03T12:40:22;22.90;;;17.03;;
7215;SDS011;3649;48.798;9.798;2023-03-03T12:59:39;24.67;;;17.57;;
7215;SDS011;3649;48.798;9.798;2023-03-03T13:21:14;25.07;;;17.13;;
7215;SDS011;3649;48.798;9.798;2023-03-03T13:26:32;24.03;;;16.57;;
7215;SDS011;3649;48.798;9.798;2023-03-03T13:31:39;26.70;;;17.67;;
7215;SDS011;3649;48.798;9.798;2023-03-03T13:34:20;23.27;;;18.60;;
7215;SDS011;3649;48.798;9.798;2023-03-03T13:37:04;24.60;;;16.97;;
7215;SDS011;3649;48.798;9.798;2023-03-03T13:39:41;23.73;;;17.27;;
7215;SDS011;3649;48.798;9.798;2023-03-03T13:45:06;28.30;;;18.10;;
7215;SDS011;3649;48.798;9.798;2023-03-03T13:56:55;24.03;;;17.33;;
7215;SDS011;3649;48.798;9.798;2023-03-03T14:02:15;23.33;;;18.53;;
7215;SDS011;3649;48.798;9.798;2023-03-03T14:07:42;24.40;;;18.23;;
7215;SDS011;3649;48.798;9.798;2023-03-03T14:13:04;22.07;;;17.50;;
7215;SDS011;3649;48.798;9.798;2023-03-03T14:18:38;22.80;;;17.40;;
7215;SDS011;3649;48.798;9.798;2023-03-03T14:21:20;23.43;;;16.80;;
7215;SDS011;3649;48.798;9.798;2023-03-03T14:26:22;28.67;;;17.07;;
7215;SDS011;3649;48.798;9.798;2023-03-03T14:28:49;25.53;;;17.50;;
7215;SDS011;3649;48.798;9.798;2023-03-03T14:36:51;27.80;;;18.63;;
7215;SDS011;3649;48.798;9.798;2023-03-03T14:39:29;25.13;;;17.63;;
7215;SDS011;3649;48.798;9.798;2023-03-03T14:41:59;24.13;;;17.40;;
7215;SDS011;3649;48.798;9.798;2023-03-03T14:44:34;29.90;;;18.23;;
7215;SDS011;3649;48.798;9.798;2023-03-03T14:47:04;25.30;;;18.33;;
7215;SDS011;3649;48.798;9.798;2023-03-03T14:49:47;22.53;;;17.80;;
7215;SDS011;3649;48.798;9.798;2023-03-03T14:54:44;30.47;;;20.43;;
7215;SDS011;3649;48.798;9.798;2023-03-03T15:05:51;26.93;;;19.57;;
7215;SDS011;3649;48.798;9.798;2023-03-03T15:08:31;27.43;;;17.93;;
7215;SDS011;3649;48.798;9.798;2023-03-03T15:14:14;26.97;;;18.37;;
7215;SDS011;3649;48.798;9.798;2023-03-03T15:16:43;22.93;;;17.53;;
7215;SDS011;3649;48.798;9.798;2023-03-03T15:21:52;29.87;;;20.37;;
7215;SDS011;3649;48.798;9.798;2023-03-03T15:24:37;27.27;;;19.23;;
7215;SDS011;3649;48.798;9.798;2023-03-03T15:27:11;27.70;;;20.17;;
7215;SDS011;3649;48.798;9.798;2023-03-03T15:29:56;28.83;;;18.70;;
7215;SDS011;3649;48.798;9.798;2023-03-03T15:32:44;30.93;;;20.63;;
7215;SDS011;3649;48.798;9.798;2023-03-03T15:37:59;27.43;;;19.43;;
7215;SDS011;3649;48.798;9.798;2023-03-03T15:40:38;27.20;;;18.87;;
7215;SDS011;3649;48.798;9.798;2023-03-03T15:54:04;28.40;;;19.63;;
7215;SDS011;3649;48.798;9.798;2023-03-03T16:02:20;28.97;;;19.83;;
7215;SDS011;3649;48.798;9.798;2023-03-03T16:10:38;30.20;;;21.00;;
7215;SDS011;3649;48.798;9.798;2023-03-03T16:16:06;26.63;;;19.13;;
7215;SDS011;3649;48.798;9.798;2023-03-03T16:18:54;28.73;;;20.60;;
7215;SDS011;3649;48.798;9.798;2023-03-03T16:30:03;27.17;;;20.50;;
7215;SDS011;3649;48.798;9.798;2023-03-03T16:32:45;29.90;;;21.23;;
7215;SDS011;3649;48.798;9.798;2023-03-03T16:35:23;30.17;;;21.30;;
7215;SDS011;3649;48.798;9.798;2023-03-03T16:37:57;29.67;;;20.87;;
7215;SDS011;3649;48.798;9.798;2023-03-03T16:40:42;29.63;;;21.53;;
7215;SDS011;3649;48.798;9.798;2023-03-03T16:45:56;29.07;;;20.73;;
7215;SDS011;3649;48.798;9.798;2023-03-03T16:48:32;33.77;;;20.17;;
7215;SDS011;3649;48.798;9.798;2023-03-03T16:54:01;33.77;;;22.20;;
7215;SDS011;3649;48.798;9.798;2023-03-03T17:05:19;31.27;;;20.57;;
7215;SDS011;3649;48.798;9.798;2023-03-03T17:07:55;30.00;;;21.23;;
7215;SDS011;3649;48.798;9.798;2023-03-03T17:10:44;29.50;;;21.83;;
7215;SDS011;3649;48.798;9.798;2023-03-03T17:42:46;31.47;;;21.77;;
7215;SDS011;3649;48.798;9.798;2023-03-03T17:44:55;32.00;;;22.07;;
7215;SDS011;3649;48.798;9.798;2023-03-03T17:56:12;34.83;;;23.67;;
7215;SDS011;3649;48.798;9.798;2023-03-03T18:23:39;35.30;;;23.47;;
7215;SDS011;3649;48.798;9.798;2023-03-03T18:31:45;35.87;;;23.00;;
7215;SDS011;3649;48.798;9.798;2023-03-03T18:42:29;43.17;;;29.70;;
7215;SDS011;3649;48.798;9.798;2023-03-03T18:45:09;36.67;;;27.03;;
7215;SDS011;3649;48.798;9.798;2023-03-03T18:53:11;45.57;;;28.37;;
7215;SDS011;3649;48.798;9.798;2023-03-03T18:55:52;38.97;;;26.33;;
7215;SDS011;3649;48.798;9.798;2023-03-03T18:58:31;35.37;;;25.37;;
7215;SDS011;3649;48.798;9.798;2023-03-03T19:03:37;37.13;;;25.47;;
7215;SDS011;3649;48.798;9.798;2023-03-03T19:09:03;40.67;;;26.17;;
7215;SDS011;3649;48.798;9.798;2023-03-03T19:16:51;40.43;;;27.03;;
7215;SDS011;3649;48.798;9.798;2023-03-03T19:19:20;37.23;;;25.90;;
7215;SDS011;3649;48.798;9.798;2023-03-03T19:22:18;37.13;;;27.43;;
7215;SDS011;3649;48.798;9.798;2023-03-03T19:33:20;35.87;;;25.00;;
7215;SDS011;3649;48.798;9.798;2023-03-03T19:41:25;34.23;;;24.73;;
7215;SDS011;3649;48.798;9.798;2023-03-03T19:54:37;37.73;;;26.13;;
7215;SDS011;3649;48.798;9.798;2023-03-03T20:08:57;42.43;;;27.10;;
7215;SDS011;3649;48.798;9.798;2023-03-03T20:12:12;39.77;;;27.00;;
7215;SDS011;3649;48.798;9.798;2023-03-03T20:17:43;38.00;;;25.87;;
7215;SDS011;3649;48.798;9.798;2023-03-03T20:25:42;41.40;;;28.60;;
7215;SDS011;3649;48.798;9.798;2023-03-03T20:31:08;37.17;;;26.97;;
7215;SDS011;3649;48.798;9.798;2023-03-03T20:36:57;35.67;;;24.47;;
7215;SDS011;3649;48.798;9.798;2023-03-03T20:57:47;40.07;;;25.33;;
7215;SDS011;3649;48.798;9.798;2023-03-03T21:03:10;36.73;;;24.67;;
7215;SDS011;3649;48.798;9.798;2023-03-03T21:06:00;44.47;;;25.17;;
7215;SDS011;3649;48.798;9.798;2023-03-03T21:11:21;39.97;;;25.40;;
7215;SDS011;3649;48.798;9.798;2023-03-03T21:13:58;40.43;;;26.90;;
7215;SDS011;3649;48.798;9.798;2023-03-03T21:16:36;40.53;;;25.73;;
7215;SDS011;3649;48.798;9.798;2023-03-03T21:19:11;41.33;;;26.17;;
7215;SDS011;3649;48.798;9.798;2023-03-03T21:21:47;38.13;;;26.80;;
7215;SDS011;3649;48.798;9.798;2023-03-03T21:24:15;37.87;;;26.23;;
7215;SDS011;3649;48.798;9.798;2023-03-03T21:26:58;36.53;;;25.37;;
7215;SDS011;3649;48.798;9.798;2023-03-03T21:29:32;39.53;;;27.30;;
7215;SDS011;3649;48.798;9.798;2023-03-03T21:32:01;41.43;;;26.53;;
7215;SDS011;3649;48.798;9.798;2023-03-03T21:34:36;36.07;;;26.27;;
7215;SDS011;3649;48.798;9.798;2023-03-03T21:37:06;37.33;;;25.47;;
7215;SDS011;3649;48.798;9.798;2023-03-03T21:40:13;35.60;;;25.20;;
7215;SDS011;3649;48.798;9.798;2023-03-03T21:42:51;37.23;;;26.00;;
7215;SDS011;3649;48.798;9.798;2023-03-03T21:45:19;46.93;;;29.40;;
7215;SDS011;3649;48.798;9.798;2023-03-03T21:47:46;47.43;;;30.43;;
7215;SDS011;3649;48.798;9.798;2023-03-03T21:50:13;42.97;;;30.03;;
7215;SDS011;3649;48.798;9.798;2023-03-03T21:52:40;41.70;;;28.37;;
7215;SDS011;3649;48.798;9.798;2023-03-03T21:55:07;37.37;;;25.33;;
7215;SDS011;3649;48.798;9.798;2023-03-03T21:57:35;36.33;;;25.57;;
7215;SDS011;3649;48.798;9.798;2023-03-03T22:00:03;42.93;;;24.93;;
7215;SDS011;3649;48.798;9.798;2023-03-03T22:02:31;37.70;;;24.00;;
7215;SDS011;3649;48.798;9.798;2023-03-03T22:04:58;42.70;;;27.07;;
7215;SDS011;3649;48.798;9.798;2023-03-03T22:07:26;36.73;;;24.80;;
7215;SDS011;3649;48.798;9.798;2023-03-03T22:09:53;38.90;;;25.50;;
7215;SDS011;3649;48.798;9.798;2023-03-03T22:12:19;43.13;;;27.10;;
7215;SDS011;3649;48.798;9.798;2023-03-03T22:14:46;36.60;;;24.90;;
7215;SDS011;3649;48.798;9.798;2023-03-03T22:17:14;38.67;;;25.87;;
7215;SDS011;3649;48.798;9.798;2023-03-03T22:19:41;41.83;;;27.93;;
7215;SDS011;3649;48.798;9.798;2023-03-03T22:22:08;36.83;;;25.37;;
7215;SDS011;3649;48.798;9.798;2023-03-03T22:24:34;38.37;;;26.27;;
7215;SDS011;3649;48.798;9.798;2023-03-03T22:27:01;36.23;;;24.63;;
7215;SDS011;3649;48.798;9.798;2023-03-03T22:29:29;36.63;;;24.70;;
7215;SDS011;3649;48.798;9.798;2023-03-03T22:31:55;38.70;;;26.17;;
7215;SDS011;3649;48.798;9.798;2023-03-03T22:34:22;38.63;;;26.23;;
7215;SDS011;3649;48.798;9.798;2023-03-03T22:36:49;37.03;;;24.83;;
7215;SDS011;3649;48.798;9.798;2023-03-03T22:39:16;41.07;;;27.00;;